createdAt,value
2019-04-11T00:04:26.163Z,73.27
2019-04-11T00:09:28.377Z,73.41
2019-04-11T00:14:30.363Z,73.66
2019-04-11T00:19:33.570Z,74.40
2019-04-11T00:24:36.764Z,73.95
2019-04-11T00:29:39.066Z,73.74
2019-04-11T00:34:41.018Z,74.77
2019-04-11T00:39:43.721Z,73.32
2019-04-11T00:44:47.982Z,73.80
2019-04-11T00:49:50.447Z,75.07
2019-04-11T00:54:53.218Z,74.35
2019-04-11T00:59:56.492Z,73.13
2019-04-11T01:04:59.248Z,73.34
2019-04-11T01:10:01.489Z,72.95
2019-04-11T01:15:07.510Z,72.99
2019-04-11T01:20:09.669Z,74.06
2019-04-11T01:25:13.233Z,72.83
2019-04-11T01:30:20.735Z,74.25
2019-04-11T01:35:23.509Z,74.11
2019-04-11T01:40:25.579Z,73.13
2019-04-11T01:45:27.724Z,75.29
2019-04-11T01:50:31.073Z,76.05
2019-04-11T01:55:32.986Z,74.97
2019-04-11T02:00:36.972Z,76.05
2019-04-11T02:05:39.124Z,75.53
2019-04-11T02:10:41.281Z,76.03
2019-04-11T02:15:44.202Z,75.54
2019-04-11T02:20:47.310Z,75.01
2019-04-11T02:25:56.643Z,74.95
2019-04-11T02:31:00.117Z,74.05
2019-04-11T02:36:03.230Z,74.37
2019-04-11T02:41:08.595Z,73.61
2019-04-11T02:46:20.422Z,74.37
2019-04-11T02:51:14.680Z,75.51
2019-04-11T02:56:17.491Z,74.57
2019-04-11T03:01:21.984Z,74.89
2019-04-11T03:06:25.835Z,74.93
2019-04-11T03:11:28.074Z,74.79
2019-04-11T03:16:42.731Z,75.15
2019-04-11T03:21:39.123Z,75.53
2019-04-11T03:26:38.326Z,76.70
2019-04-11T03:32:17.042Z,76.56
2019-04-11T03:37:27.319Z,76.04
2019-04-11T03:42:04.133Z,76.93
2019-04-11T03:47:11.320Z,76.32
2019-04-11T03:51:56.613Z,75.43
2019-04-11T03:56:59.273Z,74.57
2019-04-11T04:02:01.367Z,73.96
2019-04-11T04:07:06.794Z,74.31
2019-04-11T04:12:09.534Z,76.93
2019-04-11T04:17:33.005Z,76.83
2019-04-11T04:22:48.079Z,77.01
2019-04-11T04:27:51.275Z,76.42
2019-04-11T04:32:54.614Z,75.70
2019-04-11T04:37:58.840Z,75.11
2019-04-11T04:43:05.058Z,74.71
2019-04-11T04:48:11.046Z,74.74
2019-04-11T04:53:09.302Z,74.96
2019-04-11T04:58:11.294Z,77.76
2019-04-11T05:03:13.617Z,77.01
2019-04-11T05:08:16.555Z,78.07
2019-04-11T05:13:19.464Z,77.26
2019-04-11T05:18:21.643Z,77.14
2019-04-11T05:23:24.059Z,76.73
2019-04-11T05:28:26.274Z,76.67
2019-04-11T05:33:29.343Z,76.03
2019-04-11T05:38:32.802Z,74.69
2019-04-11T05:43:37.330Z,75.37
2019-04-11T05:48:41.143Z,75.09
2019-04-11T05:53:43.771Z,73.81
2019-04-11T05:58:47.367Z,74.79
2019-04-11T06:03:52.039Z,74.37
2019-04-11T06:09:00.362Z,75.37
2019-04-11T06:14:05.176Z,74.97
2019-04-11T06:19:16.469Z,76.33
2019-04-11T06:24:32.609Z,77.34
2019-04-11T06:29:47.971Z,77.48
2019-04-11T06:35:08.288Z,78.24
2019-04-11T06:40:24.894Z,78.04
2019-04-11T06:45:42.188Z,79.21
2019-04-11T06:51:01.843Z,78.44
2019-04-11T06:56:12.518Z,77.31
2019-04-11T07:01:16.490Z,77.23
2019-04-11T07:06:21.648Z,78.17
2019-04-11T07:11:25.611Z,77.58
2019-04-11T07:16:29.444Z,77.36
2019-04-11T07:21:33.332Z,77.52
2019-04-11T07:26:37.491Z,76.61
2019-04-11T07:31:48.327Z,76.24
2019-04-11T07:37:10.457Z,74.33
2019-04-11T07:42:34.172Z,73.97
2019-04-11T07:47:38.423Z,75.51
2019-04-11T07:52:42.593Z,74.30
2019-04-11T07:57:46.902Z,74.73
2019-04-11T08:02:59.800Z,73.17
2019-04-11T08:08:13.362Z,74.06
2019-04-11T08:13:28.950Z,73.80
2019-04-11T08:18:49.339Z,74.15
2019-04-11T08:23:54.171Z,77.87
2019-04-11T08:29:05.052Z,78.25
2019-04-11T08:34:00.606Z,76.00
2019-04-11T08:39:04.852Z,76.42
2019-04-11T08:44:07.783Z,74.73
2019-04-11T08:49:17.338Z,74.96
2019-04-11T08:54:36.071Z,78.71
2019-04-11T08:59:49.379Z,76.91
2019-04-11T09:05:08.449Z,77.40
2019-04-11T09:10:10.039Z,78.61
2019-04-11T09:15:26.629Z,77.25
2019-04-11T09:20:40.152Z,78.70
2019-04-11T09:25:54.987Z,77.38
2019-04-11T09:31:03.593Z,76.38
2019-04-11T09:36:24.399Z,77.09
2019-04-11T09:41:45.029Z,77.09
2019-04-11T09:46:59.122Z,78.48
2019-04-11T09:52:02.986Z,77.00
2019-04-11T09:57:10.067Z,79.08
2019-04-11T10:02:23.348Z,77.33
2019-04-11T10:07:28.139Z,81.52
2019-04-11T10:12:48.811Z,80.73
2019-04-11T10:18:20.134Z,79.93
2019-04-11T10:23:18.830Z,80.75
2019-04-11T10:28:35.722Z,80.96
2019-04-11T10:33:55.463Z,82.49
2019-04-11T10:39:02.866Z,83.02
2019-04-11T10:44:07.644Z,79.88
2019-04-11T10:49:28.446Z,80.09
2019-04-11T10:54:32.513Z,79.12
2019-04-11T10:59:36.441Z,77.76
2019-04-11T11:04:41.012Z,78.61
2019-04-11T11:09:46.207Z,78.01
2019-04-11T11:14:56.163Z,71.32
2019-04-11T11:20:26.702Z,71.94
2019-04-11T11:25:26.834Z,72.79
2019-04-11T11:30:47.434Z,75.45
2019-04-11T11:35:52.081Z,70.96
2019-04-11T11:40:58.979Z,75.45
2019-04-11T11:46:03.146Z,72.75
2019-04-11T11:51:08.716Z,68.07
2019-04-11T11:56:12.135Z,67.00
2019-04-11T12:01:16.019Z,65.38
2019-04-11T12:06:22.255Z,68.37
2019-04-11T12:11:26.271Z,67.45
2019-04-11T12:16:30.346Z,67.38
2019-04-11T12:21:38.857Z,65.01
2019-04-11T12:26:43.221Z,66.47
2019-04-11T12:31:48.629Z,64.72
2019-04-11T12:36:52.960Z,62.52
2019-04-11T12:41:57.259Z,61.12
2019-04-11T12:47:01.536Z,59.28
2019-04-11T12:52:22.688Z,58.69
2019-04-11T12:57:43.435Z,59.23
2019-04-11T13:03:01.104Z,57.66
2019-04-11T13:08:14.422Z,57.19
2019-04-11T13:13:18.056Z,59.97
2019-04-11T13:18:22.127Z,56.33
2019-04-11T13:23:28.599Z,57.04
2019-04-11T13:28:32.266Z,56.70
2019-04-11T13:33:34.328Z,56.88
2019-04-11T13:38:37.615Z,55.36
2019-04-11T13:43:41.674Z,54.65
2019-04-11T13:48:48.152Z,53.27
2019-04-11T13:54:09.149Z,54.88
2019-04-11T13:59:13.342Z,52.76
2019-04-11T14:04:22.964Z,48.70
2019-04-11T14:09:30.566Z,49.38
2019-04-11T14:14:32.913Z,52.53
2019-04-11T14:19:54.823Z,50.31
2019-04-11T14:25:15.537Z,51.43
2019-04-11T14:30:36.235Z,50.42
2019-04-11T14:35:40.111Z,50.88
2019-04-11T14:41:00.976Z,50.54
2019-04-11T14:45:55.971Z,51.82
2019-04-11T14:51:02.953Z,52.05
2019-04-11T14:56:14.105Z,51.58
2019-04-11T15:01:17.077Z,50.29
2019-04-11T15:06:21.011Z,48.74
2019-04-11T15:11:25.003Z,50.31
2019-04-11T15:16:33.037Z,51.67
2019-04-11T15:21:49.364Z,51.94
2019-04-11T15:26:56.689Z,53.08
2019-04-11T15:32:02.186Z,53.04
2019-04-11T15:37:21.665Z,52.81
2019-04-11T15:42:25.610Z,52.74
2019-04-11T15:47:29.661Z,52.61
2019-04-11T15:52:32.111Z,53.57
2019-04-11T15:57:36.221Z,53.02
2019-04-11T16:02:52.746Z,53.50
2019-04-11T16:08:01.692Z,54.25
2019-04-11T16:13:09.015Z,53.96
2019-04-11T16:18:29.955Z,54.50
2019-04-11T16:23:34.033Z,54.34
2019-04-11T16:28:43.945Z,54.64
2019-04-11T16:33:49.168Z,54.58
2019-04-11T16:39:08.207Z,54.81
2019-04-11T16:44:12.597Z,54.04
2019-04-11T16:49:16.307Z,54.39
2019-04-11T16:54:18.919Z,53.18
2019-04-11T16:59:22.846Z,56.29
2019-04-11T17:04:26.004Z,56.59
2019-04-11T17:09:33.551Z,57.06
2019-04-11T17:14:35.778Z,56.94
2019-04-11T17:19:38.025Z,57.10
2019-04-11T17:24:40.654Z,56.92
2019-04-11T17:29:43.596Z,58.21
2019-04-11T17:34:46.296Z,58.85
2019-04-11T17:39:48.527Z,57.61
2019-04-11T17:44:50.825Z,58.63
2019-04-11T17:49:53.110Z,58.58
2019-04-11T17:54:55.480Z,58.46
2019-04-11T17:59:59.104Z,59.04
2019-04-11T18:05:02.452Z,59.69
2019-04-11T18:10:06.000Z,59.79
2019-04-11T18:15:09.685Z,60.89
2019-04-11T18:20:13.967Z,60.95
2019-04-11T18:25:16.327Z,62.31
2019-04-11T18:30:20.900Z,62.72
2019-04-11T18:35:23.078Z,62.41
2019-04-11T18:40:25.364Z,62.91
2019-04-11T18:45:27.667Z,63.05
2019-04-11T18:50:30.176Z,63.05
2019-04-11T18:55:32.669Z,63.07
2019-04-11T19:00:35.805Z,64.29
2019-04-11T19:05:42.782Z,63.32
2019-04-11T19:10:45.804Z,64.52
2019-04-11T19:15:47.627Z,64.18
2019-04-11T19:20:50.801Z,64.61
2019-04-11T19:25:53.359Z,64.14
2019-04-11T19:30:56.770Z,64.47
2019-04-11T19:35:59.224Z,64.96
2019-04-11T19:41:02.798Z,67.79
2019-04-11T19:46:05.249Z,67.28
2019-04-11T19:51:07.434Z,67.09
2019-04-11T19:56:14.266Z,70.37
2019-04-11T20:01:16.589Z,72.81
2019-04-11T20:06:19.095Z,74.89
2019-04-11T20:11:21.524Z,72.71
2019-04-11T20:16:24.099Z,73.90
2019-04-11T20:21:26.214Z,74.26
2019-04-11T20:26:28.510Z,72.19
2019-04-11T20:31:30.675Z,71.20
2019-04-11T20:36:33.840Z,71.61
2019-04-11T20:41:36.150Z,71.66
2019-04-11T20:46:38.434Z,72.11
2019-04-11T20:51:40.844Z,72.08
2019-04-11T20:56:43.075Z,71.46
2019-04-11T21:01:45.605Z,71.42
2019-04-11T21:06:48.067Z,71.39
2019-04-11T21:11:50.336Z,70.99
2019-04-11T21:16:52.629Z,71.40
2019-04-11T21:21:55.008Z,71.65
2019-04-11T21:26:59.186Z,72.08
2019-04-11T21:32:01.673Z,71.99
2019-04-11T21:37:03.690Z,72.11
2019-04-11T21:42:06.652Z,72.14
2019-04-11T21:47:08.959Z,72.61
2019-04-11T21:52:12.312Z,72.89
2019-04-11T21:57:15.036Z,73.16
2019-04-11T22:02:17.548Z,73.69
2019-04-11T22:07:19.849Z,73.42
2019-04-11T22:12:21.801Z,73.59
2019-04-11T22:17:24.040Z,73.25
2019-04-11T22:22:26.062Z,72.89
2019-04-11T22:27:28.100Z,72.48
2019-04-11T22:32:31.297Z,72.22
2019-04-11T22:37:33.294Z,73.28
2019-04-11T22:42:35.366Z,72.24
2019-04-11T22:47:38.379Z,73.66
2019-04-11T22:52:42.313Z,73.57
2019-04-11T22:57:44.869Z,73.92
2019-04-11T23:02:48.979Z,72.90
2019-04-11T23:07:51.024Z,73.70
2019-04-11T23:12:53.283Z,73.90
2019-04-11T23:17:55.297Z,73.34
2019-04-11T23:22:57.387Z,73.34
2019-04-11T23:27:59.471Z,73.47
2019-04-11T23:33:01.781Z,73.97
2019-04-11T23:38:03.963Z,72.68
2019-04-11T23:43:07.152Z,73.79
2019-04-11T23:48:10.510Z,73.61
2019-04-11T23:53:12.562Z,73.39
2019-04-11T23:58:14.615Z,73.16
